createdAt,value
2023-03-27T00:00:38.492Z,41.8329
2023-03-27T00:01:40.105Z,41.7252
2023-03-27T00:02:41.958Z,41.7945
2023-03-27T00:03:43.525Z,41.8552
2023-03-27T00:04:45.062Z,41.8718
2023-03-27T00:05:46.733Z,41.8483
2023-03-27T00:06:48.357Z,41.8989
2023-03-27T00:07:50.016Z,41.9461
2023-03-27T00:08:51.657Z,41.9339
2023-03-27T00:09:53.327Z,42.0076
2023-03-27T00:10:55.178Z,41.9335
2023-03-27T00:11:56.617Z,41.9326
2023-03-27T00:12:58.255Z,41.9984
2023-03-27T00:13:59.926Z,42.0256
2023-03-27T00:15:01.537Z,42.0685
2023-03-27T00:16:03.254Z,42.1073
2023-03-27T00:17:04.883Z,42.1705
2023-03-27T00:18:06.552Z,42.1319
2023-03-27T00:19:08.150Z,42.1537
2023-03-27T00:20:09.833Z,42.1432
2023-03-27T00:21:11.513Z,42.2021
2023-03-27T00:22:13.129Z,42.3144
2023-03-27T00:23:14.767Z,42.1907
2023-03-27T00:24:16.435Z,42.3576
2023-03-27T00:25:18.063Z,42.3360
2023-03-27T00:26:19.758Z,42.2251
2023-03-27T00:27:21.371Z,42.3019
2023-03-27T00:28:23.030Z,42.3586
2023-03-27T00:29:24.672Z,42.3058
2023-03-27T00:30:26.325Z,42.3124
2023-03-27T00:31:28.079Z,42.3015
2023-03-27T00:32:29.653Z,42.3580
2023-03-27T00:33:31.300Z,42.3627
2023-03-27T00:34:32.924Z,42.4093
2023-03-27T00:35:34.672Z,42.4590
2023-03-27T00:36:36.248Z,42.4634
2023-03-27T00:37:37.897Z,42.4542
2023-03-27T00:38:39.740Z,42.4294
2023-03-27T00:39:41.222Z,42.4289
2023-03-27T00:40:42.855Z,42.4922
2023-03-27T00:41:44.531Z,42.5025
2023-03-27T00:42:46.152Z,42.5217
2023-03-27T00:43:47.816Z,42.5360
2023-03-27T00:44:49.442Z,42.4882
2023-03-27T00:45:51.126Z,42.4988
2023-03-27T00:46:52.803Z,42.5845
2023-03-27T00:47:54.428Z,42.5401
2023-03-27T00:48:56.047Z,42.6109
2023-03-27T00:49:57.728Z,42.5443
2023-03-27T00:50:59.356Z,42.6324
2023-03-27T00:52:01.058Z,42.5220
2023-03-27T00:53:02.657Z,42.5585
2023-03-27T00:54:04.329Z,42.5808
2023-03-27T00:55:05.985Z,42.5735
2023-03-27T00:56:07.650Z,42.6231
2023-03-27T00:57:09.333Z,42.5601
2023-03-27T00:58:10.946Z,42.5853
2023-03-27T00:59:12.606Z,42.5907
2023-03-27T01:00:14.282Z,42.6414
2023-03-27T01:01:15.904Z,42.6639
2023-03-27T01:02:17.596Z,42.5590
2023-03-27T01:03:19.275Z,42.6906
2023-03-27T01:04:20.849Z,42.6380
2023-03-27T01:05:22.487Z,42.6434
2023-03-27T01:06:24.149Z,42.6365
2023-03-27T01:07:25.788Z,42.6345
2023-03-27T01:08:27.451Z,42.6457
2023-03-27T01:09:29.084Z,42.6408
2023-03-27T01:10:30.753Z,42.6623
2023-03-27T01:11:32.386Z,42.6252
2023-03-27T01:12:34.069Z,42.5745
2023-03-27T01:13:35.693Z,42.6474
2023-03-27T01:14:37.362Z,42.6528
2023-03-27T01:15:39.013Z,42.6464
2023-03-27T01:16:40.663Z,42.6626
2023-03-27T01:17:42.358Z,42.7010
2023-03-27T01:18:43.946Z,42.6327
2023-03-27T01:19:45.594Z,42.6230
2023-03-27T01:20:47.345Z,42.7156
2023-03-27T01:21:48.904Z,42.6788
2023-03-27T01:22:50.599Z,42.7368
2023-03-27T01:23:59.354Z,42.6867
2023-03-27T01:24:53.889Z,42.6860
2023-03-27T01:25:55.500Z,42.6642
2023-03-27T01:26:57.168Z,42.6929
2023-03-27T01:27:58.832Z,42.6680
2023-03-27T01:29:00.477Z,42.7128
2023-03-27T01:30:02.109Z,42.6863
2023-03-27T01:31:03.798Z,42.7044
2023-03-27T01:32:05.414Z,42.6172
2023-03-27T01:33:07.174Z,42.6920
2023-03-27T01:34:08.718Z,42.6730
2023-03-27T01:35:10.398Z,42.6800
2023-03-27T01:36:12.042Z,42.7703
2023-03-27T01:37:13.706Z,42.7239
2023-03-27T01:38:15.355Z,42.8888
2023-03-27T01:39:17.013Z,42.7578
2023-03-27T01:40:18.639Z,42.7954
2023-03-27T01:41:20.316Z,42.7223
2023-03-27T01:42:21.948Z,42.7091
2023-03-27T01:43:23.647Z,42.6962
2023-03-27T01:44:25.247Z,42.7029
2023-03-27T01:45:26.919Z,42.7076
2023-03-27T01:46:28.587Z,42.7328
2023-03-27T01:47:30.237Z,42.7406
2023-03-27T01:48:31.929Z,42.8110
2023-03-27T01:49:33.531Z,42.7304
2023-03-27T01:50:35.152Z,42.7545
2023-03-27T01:51:36.839Z,42.7900
2023-03-27T01:52:38.488Z,42.8178
2023-03-27T01:53:40.294Z,42.7612
2023-03-27T01:54:41.782Z,42.7305
2023-03-27T01:55:43.441Z,42.7314
2023-03-27T01:56:45.091Z,42.7216
2023-03-27T01:57:48.961Z,42.7449
2023-03-27T01:58:48.405Z,42.7572
2023-03-27T01:59:50.061Z,42.6867
2023-03-27T02:01:04.110Z,42.7450
2023-03-27T02:01:53.357Z,42.7910
2023-03-27T02:02:55.009Z,42.8184
2023-03-27T02:03:56.701Z,42.7894
2023-03-27T02:04:58.322Z,42.7805
2023-03-27T02:05:59.962Z,42.7501
2023-03-27T02:07:01.597Z,42.7250
2023-03-27T02:08:03.282Z,42.7521
2023-03-27T02:09:04.911Z,42.7268
2023-03-27T02:10:06.581Z,42.7328
2023-03-27T02:11:08.284Z,42.7515
2023-03-27T02:12:09.946Z,42.8044
2023-03-27T02:13:11.584Z,42.8115
2023-03-27T02:14:13.278Z,42.7522
2023-03-27T02:15:23.659Z,42.7737
2023-03-27T02:16:16.641Z,42.7439
2023-03-27T02:17:18.201Z,42.7764
2023-03-27T02:18:19.881Z,42.8091
2023-03-27T02:19:21.537Z,42.7712
2023-03-27T02:20:23.186Z,42.7996
2023-03-27T02:21:24.846Z,42.7716
2023-03-27T02:22:38.137Z,42.7720
2023-03-27T02:23:28.132Z,42.8145
2023-03-27T02:24:29.867Z,42.8414
2023-03-27T02:25:31.457Z,42.8002
2023-03-27T02:26:33.125Z,42.7894
2023-03-27T02:27:34.743Z,42.8399
2023-03-27T02:28:36.415Z,42.7139
2023-03-27T02:29:38.080Z,42.7365
2023-03-27T02:30:39.735Z,42.8239
2023-03-27T02:31:41.430Z,42.8152
2023-03-27T02:32:43.163Z,42.8271
2023-03-27T02:33:44.681Z,42.8463
2023-03-27T02:34:46.338Z,42.8693
2023-03-27T02:35:48.022Z,42.8004
2023-03-27T02:36:49.646Z,42.7801
2023-03-27T02:37:51.314Z,42.8173
2023-03-27T02:38:52.950Z,42.8094
2023-03-27T02:39:54.638Z,42.7907
2023-03-27T02:40:56.396Z,42.8631
2023-03-27T02:41:57.911Z,42.8294
2023-03-27T02:42:59.577Z,42.8423
2023-03-27T02:44:01.233Z,42.8794
2023-03-27T02:45:02.891Z,42.8764
2023-03-27T02:46:04.625Z,42.8574
2023-03-27T02:47:06.181Z,42.8722
2023-03-27T02:48:07.900Z,42.9189
2023-03-27T02:49:09.484Z,42.8540
2023-03-27T02:50:11.227Z,42.8714
2023-03-27T02:51:12.803Z,42.8618
2023-03-27T02:52:14.464Z,42.8666
2023-03-27T02:53:16.104Z,42.8927
2023-03-27T02:54:17.766Z,42.8497
2023-03-27T02:55:19.426Z,42.8844
2023-03-27T02:56:21.097Z,42.9355
2023-03-27T02:57:24.967Z,42.9033
2023-03-27T02:58:24.391Z,42.9081
2023-03-27T02:59:26.016Z,42.9015
2023-03-27T03:00:27.712Z,42.9304
2023-03-27T03:01:29.365Z,42.9609
2023-03-27T03:02:31.065Z,42.9589
2023-03-27T03:03:32.646Z,42.9049
2023-03-27T03:04:34.307Z,42.9878
2023-03-27T03:05:35.961Z,42.9527
2023-03-27T03:06:37.608Z,42.8986
2023-03-27T03:07:39.248Z,42.9359
2023-03-27T03:08:40.919Z,42.9449
2023-03-27T03:09:42.555Z,42.9706
2023-03-27T03:10:44.241Z,42.9966
2023-03-27T03:11:45.849Z,42.9895
2023-03-27T03:12:47.515Z,42.9756
2023-03-27T03:13:49.147Z,42.9915
2023-03-27T03:14:50.831Z,42.9637
2023-03-27T03:15:52.507Z,42.9456
2023-03-27T03:16:54.177Z,42.9625
2023-03-27T03:17:55.780Z,42.9739
2023-03-27T03:18:57.451Z,43.0203
2023-03-27T03:19:59.069Z,43.0392
2023-03-27T03:21:00.782Z,42.9699
2023-03-27T03:22:02.386Z,43.0211
2023-03-27T03:23:04.056Z,42.9395
2023-03-27T03:24:05.696Z,42.9656
2023-03-27T03:25:07.370Z,42.9977
2023-03-27T03:26:09.022Z,43.0332
2023-03-27T03:27:10.693Z,43.0212
2023-03-27T03:28:12.303Z,43.0046
2023-03-27T03:29:13.972Z,43.0350
2023-03-27T03:30:16.985Z,43.0966
2023-03-27T03:31:17.362Z,43.0769
2023-03-27T03:32:18.916Z,43.1028
2023-03-27T03:33:20.582Z,43.0747
2023-03-27T03:34:22.203Z,43.0173
2023-03-27T03:35:23.898Z,43.0443
2023-03-27T03:36:25.526Z,43.1063
2023-03-27T03:37:27.178Z,43.0948
2023-03-27T03:38:28.815Z,43.1189
2023-03-27T03:39:30.490Z,43.0364
2023-03-27T03:40:32.112Z,43.0530
2023-03-27T03:41:33.804Z,43.1162
2023-03-27T03:42:35.422Z,43.1296
2023-03-27T03:43:37.086Z,43.1797
2023-03-27T03:44:38.741Z,43.1236
2023-03-27T03:45:40.395Z,43.1738
2023-03-27T03:46:42.041Z,43.1311
2023-03-27T03:47:43.725Z,43.1333
2023-03-27T03:48:45.317Z,43.1067
2023-03-27T03:49:46.993Z,43.1408
2023-03-27T03:50:48.623Z,43.1094
2023-03-27T03:52:03.775Z,43.1197
2023-03-27T03:52:51.921Z,43.0503
2023-03-27T03:53:53.586Z,43.0508
2023-03-27T03:54:55.239Z,43.0796
2023-03-27T03:55:56.883Z,43.1176
2023-03-27T03:56:58.557Z,43.1428
2023-03-27T03:58:00.192Z,43.0989
2023-03-27T03:59:01.846Z,43.1199
2023-03-27T04:00:03.504Z,43.1127
2023-03-27T04:01:05.126Z,43.1395
2023-03-27T04:02:06.837Z,43.0872
2023-03-27T04:03:08.640Z,43.1164
2023-03-27T04:04:10.104Z,43.1543
2023-03-27T04:05:11.745Z,43.1102
2023-03-27T04:06:13.419Z,43.1415
2023-03-27T04:07:15.060Z,43.1294
2023-03-27T04:08:16.715Z,43.1571
2023-03-27T04:09:18.341Z,43.1609
2023-03-27T04:10:20.048Z,43.1392
2023-03-27T04:11:21.660Z,43.1527
2023-03-27T04:12:23.353Z,43.1576
2023-03-27T04:13:24.987Z,43.1880
2023-03-27T04:14:26.622Z,43.2008
2023-03-27T04:15:28.266Z,43.2256
2023-03-27T04:16:29.994Z,43.2008
2023-03-27T04:17:31.622Z,43.1920
2023-03-27T04:18:33.367Z,43.2358
2023-03-27T04:19:34.888Z,43.1945
2023-03-27T04:20:36.537Z,43.1901
2023-03-27T04:21:38.158Z,43.1591
2023-03-27T04:22:39.847Z,43.2517
2023-03-27T04:23:41.463Z,43.5380
2023-03-27T04:24:43.140Z,43.9283
2023-03-27T04:25:44.810Z,43.9175
2023-03-27T04:26:46.441Z,43.9061
2023-03-27T04:27:48.088Z,43.9795
2023-03-27T04:28:49.730Z,44.8822
2023-03-27T04:29:51.369Z,44.8392
2023-03-27T04:30:53.038Z,44.3802
2023-03-27T04:31:54.681Z,44.7598
2023-03-27T04:32:56.389Z,45.0519
2023-03-27T04:33:57.977Z,44.4129
2023-03-27T04:34:59.651Z,44.7081
2023-03-27T04:36:06.360Z,44.8756
2023-03-27T04:37:02.958Z,39.9189
2023-03-27T04:38:04.616Z,39.6953
2023-03-27T04:39:06.260Z,40.9976
2023-03-27T04:40:07.892Z,42.4197
2023-03-27T04:41:09.545Z,41.4145
2023-03-27T04:42:11.178Z,41.6713
2023-03-27T04:43:12.887Z,43.4221
2023-03-27T04:44:14.493Z,43.3044
2023-03-27T04:45:16.190Z,44.0538
2023-03-27T04:46:17.825Z,43.7660
2023-03-27T04:47:19.476Z,44.9105
2023-03-27T04:48:21.140Z,45.2707
2023-03-27T04:49:22.780Z,44.6482
2023-03-27T04:50:24.403Z,44.8128
2023-03-27T04:51:26.089Z,44.9404
2023-03-27T04:52:27.725Z,43.4606
2023-03-27T04:53:29.556Z,42.0556
2023-03-27T04:54:31.055Z,42.6415
2023-03-27T04:55:32.680Z,43.0601
2023-03-27T04:56:34.363Z,43.5550
2023-03-27T04:57:35.987Z,41.6464
2023-03-27T04:58:37.945Z,41.0189
2023-03-27T04:59:39.301Z,41.0341
2023-03-27T05:00:40.987Z,41.7896
2023-03-27T05:01:42.606Z,39.4031
2023-03-27T05:02:44.270Z,39.7675
2023-03-27T05:03:45.976Z,40.4228
2023-03-27T05:04:47.551Z,40.1639
2023-03-27T05:05:49.190Z,39.5000
2023-03-27T05:06:50.872Z,39.5388
2023-03-27T05:07:52.580Z,39.9562
2023-03-27T05:08:54.177Z,40.1381
2023-03-27T05:09:55.777Z,40.2717
2023-03-27T05:10:57.712Z,40.4890
2023-03-27T05:11:59.098Z,40.7370
2023-03-27T05:13:00.769Z,41.1405
2023-03-27T05:14:02.426Z,41.6011
2023-03-27T05:15:04.089Z,42.2691
2023-03-27T05:16:05.720Z,42.3478
2023-03-27T05:17:07.374Z,42.2058
2023-03-27T05:18:09.322Z,42.3291
2023-03-27T05:19:10.767Z,42.5699
2023-03-27T05:20:12.319Z,42.3944
2023-03-27T05:21:13.974Z,42.0035
2023-03-27T05:22:15.626Z,42.1479
2023-03-27T05:23:17.288Z,42.2702
2023-03-27T05:24:18.931Z,42.7993
2023-03-27T05:25:20.586Z,42.7794
2023-03-27T05:26:22.215Z,43.4138
2023-03-27T05:27:23.923Z,43.7800
2023-03-27T05:28:25.525Z,43.8684
2023-03-27T05:29:27.232Z,43.9612
2023-03-27T05:30:28.927Z,43.7858
2023-03-27T05:31:30.573Z,43.6873
2023-03-27T05:32:32.170Z,43.6723
2023-03-27T05:33:33.785Z,43.5766
2023-03-27T05:34:35.496Z,43.6245
2023-03-27T05:35:37.125Z,43.7528
2023-03-27T05:36:38.773Z,44.5486
2023-03-27T05:37:40.405Z,44.3681
2023-03-27T05:38:42.064Z,45.1935
2023-03-27T05:39:43.732Z,45.1208
2023-03-27T05:40:45.374Z,45.2395
2023-03-27T05:41:47.005Z,44.8829
2023-03-27T05:42:48.674Z,44.4244
2023-03-27T05:43:51.241Z,44.1546
2023-03-27T05:44:51.996Z,44.0927
2023-03-27T05:45:53.626Z,44.0082
2023-03-27T05:46:55.291Z,43.8587
2023-03-27T05:47:56.991Z,43.7809
2023-03-27T05:48:58.592Z,44.0011
2023-03-27T05:50:00.249Z,43.8465
2023-03-27T05:51:01.903Z,43.9464
2023-03-27T05:52:03.510Z,44.0729
2023-03-27T05:53:05.200Z,43.8654
2023-03-27T05:54:06.809Z,44.0042
2023-03-27T05:55:08.523Z,44.2222
2023-03-27T05:56:10.116Z,44.0857
2023-03-27T05:57:11.914Z,44.2372
2023-03-27T05:58:13.462Z,44.0191
2023-03-27T05:59:15.077Z,44.2990
2023-03-27T06:00:16.762Z,44.2180
2023-03-27T06:01:18.388Z,44.0898
2023-03-27T06:02:21.517Z,44.4655
2023-03-27T06:03:21.876Z,44.6615
2023-03-27T06:04:23.358Z,44.3721
2023-03-27T06:05:25.023Z,44.3181
2023-03-27T06:06:26.637Z,44.4378
2023-03-27T06:07:28.305Z,44.6635
2023-03-27T06:08:29.933Z,44.6558
2023-03-27T06:09:31.583Z,44.4951
2023-03-27T06:10:33.250Z,44.4723
2023-03-27T06:11:34.889Z,44.5018
2023-03-27T06:12:36.526Z,44.2798
2023-03-27T06:13:38.260Z,44.4632
2023-03-27T06:14:39.906Z,44.6125
2023-03-27T06:15:41.635Z,44.5067
2023-03-27T06:16:43.201Z,44.4102
2023-03-27T06:17:44.894Z,44.5236
2023-03-27T06:18:46.498Z,44.4240
2023-03-27T06:19:48.184Z,44.4747
2023-03-27T06:20:49.815Z,44.4950
2023-03-27T06:21:51.460Z,44.4618
2023-03-27T06:22:53.104Z,44.4327
2023-03-27T06:23:54.763Z,44.4928
2023-03-27T06:24:56.389Z,44.6451
2023-03-27T06:25:58.378Z,44.6421
2023-03-27T06:26:59.691Z,44.6444
2023-03-27T06:28:01.364Z,44.5530
2023-03-27T06:29:08.142Z,44.5946
2023-03-27T06:30:04.676Z,44.5756
2023-03-27T06:31:06.355Z,44.5798
2023-03-27T06:32:07.981Z,44.6556
2023-03-27T06:33:09.621Z,44.6712
2023-03-27T06:34:11.284Z,44.7070
2023-03-27T06:35:12.896Z,44.6242
2023-03-27T06:36:14.625Z,44.6365
2023-03-27T06:37:16.181Z,44.5361
2023-03-27T06:38:17.862Z,44.6350
2023-03-27T06:39:19.479Z,44.5742
2023-03-27T06:40:21.139Z,44.6315
2023-03-27T06:41:22.802Z,44.5497
2023-03-27T06:42:24.445Z,44.5809
2023-03-27T06:43:26.075Z,44.5149
2023-03-27T06:44:27.738Z,44.5371
2023-03-27T06:45:29.393Z,44.5269
2023-03-27T06:46:42.688Z,44.5439
2023-03-27T06:47:36.382Z,44.5916
2023-03-27T06:48:34.366Z,44.5695
2023-03-27T06:49:35.975Z,44.5232
2023-03-27T06:50:37.629Z,44.6149
2023-03-27T06:51:39.281Z,44.5827
2023-03-27T06:52:40.928Z,44.6219
2023-03-27T06:53:42.558Z,44.5571
2023-03-27T06:54:44.216Z,44.6027
2023-03-27T06:55:45.868Z,44.6382
2023-03-27T06:56:47.610Z,44.5932
2023-03-27T06:57:49.166Z,44.5622
2023-03-27T06:58:50.836Z,44.5858
2023-03-27T06:59:52.488Z,44.6194
2023-03-27T07:00:54.129Z,44.5185
2023-03-27T07:01:55.830Z,44.5223
2023-03-27T07:02:57.420Z,44.4809
2023-03-27T07:03:59.065Z,44.4889
2023-03-27T07:05:04.649Z,44.5241
2023-03-27T07:06:02.556Z,44.4618
2023-03-27T07:07:04.049Z,44.5405
2023-03-27T07:08:18.997Z,44.5316
2023-03-27T07:09:07.318Z,44.4627
2023-03-27T07:10:08.962Z,44.5701
2023-03-27T07:11:12.266Z,44.4730
2023-03-27T07:12:12.278Z,44.5814
2023-03-27T07:13:13.919Z,44.6111
2023-03-27T07:14:15.589Z,44.5349
2023-03-27T07:15:17.295Z,44.5743
2023-03-27T07:16:18.892Z,44.5439
2023-03-27T07:17:20.532Z,44.5762
2023-03-27T07:18:22.216Z,44.5598
2023-03-27T07:19:23.822Z,44.5278
2023-03-27T07:20:25.473Z,44.5546
2023-03-27T07:21:27.137Z,44.5059
2023-03-27T07:22:28.799Z,44.5723
2023-03-27T07:23:30.435Z,44.5523
2023-03-27T07:24:32.060Z,44.5115
2023-03-27T07:25:33.744Z,44.5206
2023-03-27T07:26:35.354Z,44.5487
2023-03-27T07:27:37.063Z,44.5113
2023-03-27T07:28:38.729Z,44.6018
2023-03-27T07:29:40.337Z,44.5976
2023-03-27T07:30:41.983Z,44.5020
2023-03-27T07:31:57.525Z,44.4891
2023-03-27T07:32:45.408Z,44.4447
2023-03-27T07:33:47.068Z,44.5035
2023-03-27T07:34:48.579Z,44.5573
2023-03-27T07:35:50.256Z,44.4479
2023-03-27T07:36:51.894Z,44.4781
2023-03-27T07:37:53.579Z,44.4481
2023-03-27T07:38:55.184Z,44.4877
2023-03-27T07:39:56.847Z,44.4762
2023-03-27T07:40:58.504Z,44.4923
2023-03-27T07:42:00.164Z,44.4959
2023-03-27T07:43:01.834Z,44.4701
2023-03-27T07:44:03.464Z,44.4864
2023-03-27T07:45:05.090Z,44.4659
2023-03-27T07:46:06.803Z,44.4693
2023-03-27T07:47:08.397Z,44.4369
2023-03-27T07:48:10.087Z,44.4807
2023-03-27T07:49:11.685Z,44.4770
2023-03-27T07:50:13.380Z,44.4933
2023-03-27T07:51:14.982Z,44.4827
2023-03-27T07:52:16.738Z,44.5019
2023-03-27T07:53:32.806Z,44.4916
2023-03-27T07:54:19.945Z,44.4919
2023-03-27T07:55:21.582Z,44.5317
2023-03-27T07:56:23.276Z,44.5358
2023-03-27T07:57:25.041Z,44.5179
2023-03-27T07:58:26.857Z,44.5038
2023-03-27T07:59:28.197Z,44.4540
2023-03-27T08:00:29.980Z,44.4531
2023-03-27T08:01:31.480Z,44.5170
2023-03-27T08:02:33.188Z,44.4499
2023-03-27T08:03:34.922Z,44.5095
2023-03-27T08:04:36.584Z,44.5248
2023-03-27T08:05:38.080Z,44.5045
2023-03-27T08:06:39.751Z,44.5186
2023-03-27T08:07:41.389Z,44.5180
2023-03-27T08:08:43.092Z,44.5039
2023-03-27T08:09:44.697Z,44.5097
2023-03-27T08:10:46.361Z,44.4737
2023-03-27T08:11:48.010Z,44.4480
2023-03-27T08:12:49.668Z,44.4667
2023-03-27T08:13:51.330Z,44.5282
2023-03-27T08:14:52.968Z,44.4836
2023-03-27T08:15:54.750Z,44.4155
2023-03-27T08:17:08.648Z,44.4119
2023-03-27T08:17:57.937Z,44.4689
2023-03-27T08:18:59.640Z,44.5188
2023-03-27T08:20:01.226Z,44.5513
2023-03-27T08:21:02.957Z,44.4854
2023-03-27T08:22:04.501Z,44.4987
2023-03-27T08:23:06.191Z,44.4399
2023-03-27T08:24:07.833Z,44.4554
2023-03-27T08:25:09.502Z,44.4785
2023-03-27T08:26:11.101Z,44.5088
2023-03-27T08:27:12.798Z,44.4742
2023-03-27T08:28:14.433Z,44.4670
2023-03-27T08:29:16.138Z,44.4730
2023-03-27T08:30:17.794Z,44.5682
2023-03-27T08:31:19.487Z,44.5227
2023-03-27T08:32:21.035Z,44.4991
2023-03-27T08:33:22.739Z,44.5077
2023-03-27T08:34:24.397Z,44.4994
2023-03-27T08:35:26.026Z,44.4949
2023-03-27T08:36:27.632Z,44.5104
2023-03-27T08:37:29.265Z,44.5268
2023-03-27T08:38:30.964Z,44.4885
2023-03-27T08:39:32.630Z,44.5181
2023-03-27T08:40:34.219Z,44.5597
2023-03-27T08:41:35.882Z,44.5498
2023-03-27T08:42:37.556Z,44.5770
2023-03-27T08:43:39.142Z,44.5891
2023-03-27T08:44:40.873Z,44.4856
2023-03-27T08:45:42.470Z,44.4874
2023-03-27T08:46:44.136Z,44.4717
2023-03-27T08:48:48.556Z,44.5054
2023-03-27T08:48:48.556Z,44.4771
2023-03-27T08:49:50.144Z,44.5037
2023-03-27T08:50:51.817Z,44.4638
2023-03-27T08:51:53.406Z,44.5109
2023-03-27T08:52:55.059Z,44.5869
2023-03-27T08:53:56.719Z,44.5856
2023-03-27T08:54:58.502Z,44.6398
2023-03-27T08:56:00.003Z,44.6413
2023-03-27T08:57:01.759Z,44.5956
2023-03-27T08:58:03.334Z,44.6176
2023-03-27T08:59:04.992Z,44.6161
2023-03-27T09:00:06.650Z,44.6334
2023-03-27T09:01:08.301Z,44.6511
2023-03-27T09:02:09.989Z,44.5955
2023-03-27T09:03:11.721Z,44.6040
2023-03-27T09:04:13.218Z,44.6255
2023-03-27T09:05:14.931Z,44.6371
2023-03-27T09:06:16.567Z,44.5870
2023-03-27T09:07:18.188Z,44.5817
2023-03-27T09:08:19.804Z,44.6046
2023-03-27T09:09:21.461Z,44.5861
2023-03-27T09:10:23.199Z,44.5967
2023-03-27T09:11:24.804Z,44.5480
2023-03-27T09:12:26.430Z,44.5978
2023-03-27T09:13:28.027Z,44.6266
2023-03-27T09:14:29.686Z,44.6595
2023-03-27T09:15:31.384Z,44.5955
2023-03-27T09:16:33.122Z,44.5891
2023-03-27T09:17:34.683Z,44.5705
2023-03-27T09:18:36.316Z,44.5538
2023-03-27T09:19:37.947Z,44.6043
2023-03-27T09:20:39.662Z,44.6188
2023-03-27T09:21:41.229Z,44.6850
2023-03-27T09:22:42.904Z,44.6169
2023-03-27T09:23:44.523Z,44.6264
2023-03-27T09:24:46.236Z,44.6273
2023-03-27T09:25:47.926Z,44.6311
2023-03-27T09:27:01.072Z,44.6158
2023-03-27T09:27:51.132Z,44.6779
2023-03-27T09:28:52.806Z,44.6449
2023-03-27T09:30:05.960Z,44.6500
2023-03-27T09:30:56.226Z,44.6181
2023-03-27T09:31:57.744Z,44.5620
2023-03-27T09:32:59.448Z,44.5728
2023-03-27T09:34:01.001Z,44.6156
2023-03-27T09:35:02.752Z,44.5901
2023-03-27T09:36:04.460Z,44.5766
2023-03-27T09:37:06.056Z,44.6620
2023-03-27T09:38:07.640Z,44.6256
2023-03-27T09:39:09.314Z,44.6235
2023-03-27T09:40:10.954Z,44.6268
2023-03-27T09:41:12.634Z,44.6036
2023-03-27T09:42:14.238Z,44.6028
2023-03-27T09:43:15.920Z,44.5600
2023-03-27T09:44:17.596Z,44.5486
2023-03-27T09:45:19.301Z,44.5317
2023-03-27T09:46:20.933Z,44.5730
2023-03-27T09:47:22.520Z,44.6296
2023-03-27T09:48:24.185Z,44.6404
2023-03-27T09:49:25.814Z,44.5922
2023-03-27T09:50:27.945Z,44.5930
2023-03-27T09:51:29.269Z,44.6183
2023-03-27T09:52:30.711Z,44.5568
2023-03-27T09:53:32.434Z,44.4877
2023-03-27T09:54:34.058Z,44.5435
2023-03-27T09:55:35.717Z,44.6122
2023-03-27T09:56:37.392Z,44.6421
2023-03-27T09:57:39.077Z,44.6406
2023-03-27T09:58:40.678Z,44.6316
2023-03-27T09:59:42.307Z,44.6141
2023-03-27T10:00:44.031Z,44.5652
2023-03-27T10:01:45.632Z,44.6392
2023-03-27T10:02:47.297Z,44.6189
2023-03-27T10:03:49.108Z,44.6313
2023-03-27T10:04:50.548Z,44.6416
2023-03-27T10:05:52.216Z,44.5706
2023-03-27T10:06:53.852Z,44.5521
2023-03-27T10:07:55.522Z,44.5638
2023-03-27T10:08:57.165Z,44.5982
2023-03-27T10:09:58.836Z,44.6514
2023-03-27T10:11:00.485Z,44.6654
2023-03-27T10:12:02.190Z,44.5811
2023-03-27T10:13:03.767Z,44.5581
2023-03-27T10:14:05.454Z,44.5935
2023-03-27T10:15:07.112Z,44.6476
2023-03-27T10:16:08.837Z,44.6262
2023-03-27T10:17:10.450Z,44.6174
2023-03-27T10:18:12.199Z,44.5695
2023-03-27T10:19:13.855Z,44.5991
2023-03-27T10:20:15.491Z,44.5517
2023-03-27T10:21:17.100Z,44.5062
2023-03-27T10:22:18.766Z,44.5962
2023-03-27T10:23:20.359Z,44.5807
2023-03-27T10:24:22.005Z,44.5519
2023-03-27T10:25:23.678Z,44.6256
2023-03-27T10:26:25.343Z,44.5749
2023-03-27T10:27:26.976Z,44.5733
2023-03-27T10:28:28.609Z,44.4834
2023-03-27T10:29:30.262Z,44.5560
2023-03-27T10:30:31.912Z,44.5453
2023-03-27T10:31:33.588Z,44.5224
2023-03-27T10:32:35.268Z,44.5189
2023-03-27T10:33:36.885Z,44.5472
2023-03-27T10:34:38.517Z,44.4601
2023-03-27T10:35:40.179Z,44.5060
2023-03-27T10:36:41.842Z,44.4916
2023-03-27T10:37:49.773Z,44.5215
2023-03-27T10:38:45.132Z,44.5126
2023-03-27T10:39:46.756Z,44.4981
2023-03-27T10:40:48.426Z,44.5425
2023-03-27T10:41:50.067Z,44.5642
2023-03-27T10:42:51.782Z,44.5530
2023-03-27T10:43:53.360Z,44.5697
2023-03-27T10:44:55.030Z,44.5310
2023-03-27T10:45:56.764Z,44.5330
2023-03-27T10:46:58.347Z,44.5295
2023-03-27T10:48:00.038Z,44.4696
2023-03-27T10:49:01.635Z,44.4055
2023-03-27T10:50:03.267Z,44.4234
2023-03-27T10:51:04.945Z,44.5111
2023-03-27T10:52:06.560Z,44.5206
2023-03-27T10:53:08.336Z,44.4679
2023-03-27T10:54:09.902Z,44.5516
2023-03-27T10:55:11.537Z,44.5275
2023-03-27T10:56:13.176Z,44.4879
2023-03-27T10:57:14.868Z,44.4964
2023-03-27T10:58:16.481Z,44.4653
2023-03-27T10:59:21.509Z,44.6261
2023-03-27T11:00:19.763Z,44.6588
2023-03-27T11:01:21.505Z,44.5874
2023-03-27T11:02:23.115Z,44.6134
2023-03-27T11:03:24.807Z,44.4910
2023-03-27T11:04:26.378Z,44.5647
2023-03-27T11:05:28.092Z,44.5370
2023-03-27T11:06:29.698Z,44.6014
2023-03-27T11:07:31.369Z,44.5724
2023-03-27T11:08:33.062Z,44.4409
2023-03-27T11:09:34.708Z,44.5058
2023-03-27T11:10:36.320Z,44.5754
2023-03-27T11:11:38.031Z,44.6257
2023-03-27T11:12:39.608Z,44.5894
2023-03-27T11:13:41.279Z,44.6324
2023-03-27T11:14:42.917Z,44.5126
2023-03-27T11:15:44.608Z,44.5667
2023-03-27T11:16:46.242Z,44.5361
2023-03-27T11:17:47.905Z,44.5997
2023-03-27T11:18:49.573Z,44.5797
2023-03-27T11:19:51.176Z,44.4740
2023-03-27T11:20:52.789Z,44.4810
2023-03-27T11:21:54.485Z,44.6140
2023-03-27T11:22:56.138Z,44.6709
2023-03-27T11:23:57.926Z,44.6086
2023-03-27T11:24:59.429Z,44.5830
2023-03-27T11:26:01.075Z,44.5187
2023-03-27T11:27:02.754Z,44.6080
2023-03-27T11:28:04.444Z,44.6217
2023-03-27T11:29:06.059Z,44.6775
2023-03-27T11:30:07.705Z,44.6044
2023-03-27T11:31:12.112Z,44.6193
2023-03-27T11:32:10.995Z,44.6656
2023-03-27T11:33:12.608Z,44.6525
2023-03-27T11:34:14.345Z,44.5622
2023-03-27T11:35:15.923Z,44.5080
2023-03-27T11:36:17.619Z,44.6370
2023-03-27T11:37:19.217Z,44.6412
2023-03-27T11:38:20.911Z,44.5739
2023-03-27T11:39:22.626Z,44.6100
2023-03-27T11:40:24.232Z,44.5730
2023-03-27T11:41:25.847Z,44.6262
2023-03-27T11:42:27.604Z,44.5989
2023-03-27T11:43:29.135Z,44.5587
2023-03-27T11:44:30.847Z,44.6804
2023-03-27T11:45:32.452Z,44.7072
2023-03-27T11:46:34.168Z,44.6023
2023-03-27T11:47:35.759Z,44.6688
2023-03-27T11:48:37.394Z,44.6604
2023-03-27T11:49:39.141Z,44.5482
2023-03-27T11:50:40.750Z,44.6343
2023-03-27T11:51:42.403Z,44.5851
2023-03-27T11:52:43.997Z,44.5634
2023-03-27T11:53:45.684Z,44.6415
2023-03-27T11:54:47.379Z,44.5872
2023-03-27T11:55:49.008Z,44.6655
2023-03-27T11:56:50.643Z,44.5733
2023-03-27T11:57:52.278Z,44.5695
2023-03-27T11:58:53.917Z,44.5376
2023-03-27T11:59:55.616Z,44.5608
2023-03-27T12:00:57.393Z,44.5383
2023-03-27T12:01:58.936Z,44.5417
2023-03-27T12:03:00.574Z,44.5763
2023-03-27T12:04:02.320Z,44.6175
2023-03-27T12:05:03.866Z,44.6483
2023-03-27T12:06:05.556Z,44.6311
2023-03-27T12:07:09.836Z,44.6267
2023-03-27T12:08:08.790Z,44.5467
2023-03-27T12:09:10.428Z,44.5530
2023-03-27T12:10:12.140Z,44.6411
2023-03-27T12:11:13.716Z,44.6676
2023-03-27T12:12:15.391Z,44.6585
2023-03-27T12:13:17.021Z,44.6126
2023-03-27T12:14:19.140Z,44.6088
2023-03-27T12:15:20.421Z,44.6156
2023-03-27T12:16:22.092Z,44.6291
2023-03-27T12:17:23.725Z,44.5898
2023-03-27T12:18:35.277Z,44.6058
2023-03-27T12:19:29.680Z,44.6330
2023-03-27T12:20:28.745Z,44.6371
2023-03-27T12:21:30.330Z,44.6820
2023-03-27T12:22:31.921Z,44.6136
2023-03-27T12:23:33.522Z,44.6068
2023-03-27T12:24:35.196Z,44.6869
2023-03-27T12:25:36.931Z,44.6263